sensor_id;sensor_type;location;lat;lon;timestamp;P1;durP1;ratioP1;P2;durP2;ratioP2
21624;SDS011;10974;51.034;3.744;2023-03-14T04:21:14;5.33;;;2.50;;
21624;SDS011;10974;51.034;3.744;2023-03-14T04:23:40;7.70;;;2.80;;
21624;SDS011;10974;51.034;3.744;2023-03-14T04:26:06;5.30;;;2.30;;
21624;SDS011;10974;51.034;3.744;2023-03-14T04:28:32;5.53;;;2.67;;
21624;SDS011;10974;51.034;3.744;2023-03-14T04:31:06;6.30;;;2.70;;
21624;SDS011;10974;51.034;3.744;2023-03-14T04:33:32;3.63;;;2.40;;
21624;SDS011;10974;51.034;3.744;2023-03-14T04:35:58;5.60;;;2.40;;
21624;SDS011;10974;51.034;3.744;2023-03-14T04:38:24;5.43;;;2.33;;
21624;SDS011;10974;51.034;3.744;2023-03-14T04:40:50;4.33;;;2.00;;
21624;SDS011;10974;51.034;3.744;2023-03-14T04:43:16;2.40;;;1.53;;
21624;SDS011;10974;51.034;3.744;2023-03-14T04:45:42;2.57;;;2.00;;
21624;SDS011;10974;51.034;3.744;2023-03-14T04:48:09;2.40;;;1.40;;
21624;SDS011;10974;51.034;3.744;2023-03-14T04:50:35;4.80;;;1.87;;
21624;SDS011;10974;51.034;3.744;2023-03-14T04:53:01;2.33;;;1.23;;
21624;SDS011;10974;51.034;3.744;2023-03-14T04:55:27;3.10;;;1.60;;
21624;SDS011;10974;51.034;3.744;2023-03-14T04:57:53;2.70;;;1.50;;
21624;SDS011;10974;51.034;3.744;2023-03-14T05:00:19;6.80;;;1.60;;
21624;SDS011;10974;51.034;3.744;2023-03-14T05:02:45;2.30;;;1.30;;
21624;SDS011;10974;51.034;3.744;2023-03-14T05:05:11;2.40;;;1.50;;
21624;SDS011;10974;51.034;3.744;2023-03-14T05:07:37;3.37;;;1.47;;
21624;SDS011;10974;51.034;3.744;2023-03-14T05:10:03;1.90;;;1.03;;
21624;SDS011;10974;51.034;3.744;2023-03-14T05:12:29;1.50;;;1.10;;
21624;SDS011;10974;51.034;3.744;2023-03-14T05:14:56;2.33;;;1.20;;
21624;SDS011;10974;51.034;3.744;2023-03-14T05:17:22;4.53;;;1.60;;
21624;SDS011;10974;51.034;3.744;2023-03-14T05:19:48;2.23;;;1.30;;
21624;SDS011;10974;51.034;3.744;2023-03-14T05:22:14;5.60;;;1.80;;
21624;SDS011;10974;51.034;3.744;2023-03-14T05:24:40;2.60;;;1.27;;
21624;SDS011;10974;51.034;3.744;2023-03-14T05:27:06;3.23;;;1.20;;
21624;SDS011;10974;51.034;3.744;2023-03-14T05:29:32;2.40;;;1.40;;
21624;SDS011;10974;51.034;3.744;2023-03-14T05:31:58;2.30;;;1.40;;
21624;SDS011;10974;51.034;3.744;2023-03-14T05:34:24;3.40;;;1.43;;
21624;SDS011;10974;51.034;3.744;2023-03-14T05:36:50;3.87;;;1.57;;
21624;SDS011;10974;51.034;3.744;2023-03-14T05:39:16;4.33;;;1.67;;
21624;SDS011;10974;51.034;3.744;2023-03-14T05:41:42;3.40;;;1.50;;
21624;SDS011;10974;51.034;3.744;2023-03-14T05:44:08;1.40;;;1.27;;
21624;SDS011;10974;51.034;3.744;2023-03-14T05:46:34;2.50;;;1.20;;
21624;SDS011;10974;51.034;3.744;2023-03-14T05:49:00;3.30;;;1.50;;
21624;SDS011;10974;51.034;3.744;2023-03-14T05:51:26;3.53;;;1.40;;
21624;SDS011;10974;51.034;3.744;2023-03-14T05:53:52;2.00;;;1.60;;
21624;SDS011;10974;51.034;3.744;2023-03-14T05:56:18;5.73;;;1.40;;
21624;SDS011;10974;51.034;3.744;2023-03-14T05:58:44;3.97;;;1.77;;
21624;SDS011;10974;51.034;3.744;2023-03-14T06:01:10;4.13;;;1.70;;
21624;SDS011;10974;51.034;3.744;2023-03-14T06:03:37;3.40;;;1.53;;
21624;SDS011;10974;51.034;3.744;2023-03-14T06:06:03;4.10;;;1.77;;
21624;SDS011;10974;51.034;3.744;2023-03-14T06:08:29;3.20;;;1.70;;
21624;SDS011;10974;51.034;3.744;2023-03-14T06:10:56;1.37;;;1.27;;
21624;SDS011;10974;51.034;3.744;2023-03-14T06:13:22;2.50;;;1.40;;
21624;SDS011;10974;51.034;3.744;2023-03-14T06:15:48;2.20;;;1.30;;
21624;SDS011;10974;51.034;3.744;2023-03-14T06:18:14;1.63;;;1.07;;
21624;SDS011;10974;51.034;3.744;2023-03-14T06:20:40;3.80;;;1.17;;
21624;SDS011;10974;51.034;3.744;2023-03-14T06:23:07;2.47;;;1.37;;
21624;SDS011;10974;51.034;3.744;2023-03-14T06:25:33;1.70;;;1.17;;
21624;SDS011;10974;51.034;3.744;2023-03-14T06:27:59;3.10;;;1.20;;
21624;SDS011;10974;51.034;3.744;2023-03-14T06:30:25;1.90;;;1.30;;
21624;SDS011;10974;51.034;3.744;2023-03-14T06:32:51;1.70;;;1.50;;
21624;SDS011;10974;51.034;3.744;2023-03-14T06:35:17;1.90;;;1.30;;
21624;SDS011;10974;51.034;3.744;2023-03-14T06:37:44;2.57;;;1.00;;
21624;SDS011;10974;51.034;3.744;2023-03-14T06:40:10;3.10;;;1.37;;
21624;SDS011;10974;51.034;3.744;2023-03-14T06:42:41;4.00;;;1.60;;
21624;SDS011;10974;51.034;3.744;2023-03-14T06:45:08;7.03;;;3.50;;
21624;SDS011;10974;51.034;3.744;2023-03-14T06:47:34;4.20;;;2.40;;
21624;SDS011;10974;51.034;3.744;2023-03-14T06:50:00;11.53;;;5.43;;
21624;SDS011;10974;51.034;3.744;2023-03-14T06:52:26;7.00;;;3.93;;
21624;SDS011;10974;51.034;3.744;2023-03-14T06:54:52;5.73;;;2.50;;
21624;SDS011;10974;51.034;3.744;2023-03-14T06:57:18;4.43;;;2.03;;
21624;SDS011;10974;51.034;3.744;2023-03-14T06:59:44;4.27;;;2.00;;
21624;SDS011;10974;51.034;3.744;2023-03-14T07:02:10;4.90;;;2.20;;
21624;SDS011;10974;51.034;3.744;2023-03-14T07:04:37;3.53;;;2.20;;
21624;SDS011;10974;51.034;3.744;2023-03-14T07:07:03;6.80;;;2.50;;
21624;SDS011;10974;51.034;3.744;2023-03-14T07:09:30;4.67;;;2.27;;
21624;SDS011;10974;51.034;3.744;2023-03-14T07:11:57;2.67;;;2.00;;
21624;SDS011;10974;51.034;3.744;2023-03-14T07:14:23;7.00;;;2.63;;
21624;SDS011;10974;51.034;3.744;2023-03-14T07:16:49;5.20;;;2.17;;
21624;SDS011;10974;51.034;3.744;2023-03-14T07:19:15;3.80;;;2.60;;
21624;SDS011;10974;51.034;3.744;2023-03-14T07:21:41;3.57;;;2.57;;
21624;SDS011;10974;51.034;3.744;2023-03-14T07:24:07;2.40;;;2.20;;
21624;SDS011;10974;51.034;3.744;2023-03-14T07:26:33;5.17;;;2.43;;
21624;SDS011;10974;51.034;3.744;2023-03-14T07:28:59;3.63;;;2.27;;
21624;SDS011;10974;51.034;3.744;2023-03-14T07:31:28;5.23;;;2.73;;
21624;SDS011;10974;51.034;3.744;2023-03-14T07:33:54;4.63;;;2.40;;
21624;SDS011;10974;51.034;3.744;2023-03-14T07:36:20;3.33;;;1.73;;
21624;SDS011;10974;51.034;3.744;2023-03-14T07:38:46;7.60;;;2.13;;
21624;SDS011;10974;51.034;3.744;2023-03-14T07:41:13;3.73;;;2.13;;
21624;SDS011;10974;51.034;3.744;2023-03-14T07:43:40;3.50;;;1.83;;
21624;SDS011;10974;51.034;3.744;2023-03-14T07:46:06;4.40;;;1.67;;
21624;SDS011;10974;51.034;3.744;2023-03-14T07:48:32;3.37;;;1.70;;
21624;SDS011;10974;51.034;3.744;2023-03-14T07:50:58;2.30;;;1.90;;
21624;SDS011;10974;51.034;3.744;2023-03-14T07:53:25;2.10;;;1.90;;
21624;SDS011;10974;51.034;3.744;2023-03-14T07:55:51;5.00;;;1.60;;
21624;SDS011;10974;51.034;3.744;2023-03-14T07:58:18;4.63;;;1.87;;
21624;SDS011;10974;51.034;3.744;2023-03-14T08:00:44;3.13;;;1.47;;
21624;SDS011;10974;51.034;3.744;2023-03-14T08:03:11;4.20;;;1.60;;
21624;SDS011;10974;51.034;3.744;2023-03-14T08:05:37;5.00;;;1.80;;
21624;SDS011;10974;51.034;3.744;2023-03-14T08:08:04;4.40;;;1.73;;
21624;SDS011;10974;51.034;3.744;2023-03-14T08:10:30;6.13;;;1.77;;
21624;SDS011;10974;51.034;3.744;2023-03-14T08:12:58;2.67;;;1.83;;
21624;SDS011;10974;51.034;3.744;2023-03-14T08:15:24;4.80;;;1.90;;
21624;SDS011;10974;51.034;3.744;2023-03-14T08:17:51;4.37;;;1.93;;
21624;SDS011;10974;51.034;3.744;2023-03-14T08:20:18;4.17;;;1.87;;
21624;SDS011;10974;51.034;3.744;2023-03-14T08:22:44;5.00;;;1.93;;
21624;SDS011;10974;51.034;3.744;2023-03-14T08:25:11;2.90;;;1.63;;
21624;SDS011;10974;51.034;3.744;2023-03-14T08:27:37;2.40;;;1.83;;
21624;SDS011;10974;51.034;3.744;2023-03-14T08:30:07;4.23;;;2.00;;
21624;SDS011;10974;51.034;3.744;2023-03-14T08:32:33;5.60;;;1.80;;
21624;SDS011;10974;51.034;3.744;2023-03-14T08:34:59;6.47;;;2.40;;
21624;SDS011;10974;51.034;3.744;2023-03-14T08:37:25;3.63;;;1.70;;
21624;SDS011;10974;51.034;3.744;2023-03-14T08:39:52;3.30;;;2.00;;
21624;SDS011;10974;51.034;3.744;2023-03-14T08:42:18;4.50;;;2.17;;
21624;SDS011;10974;51.034;3.744;2023-03-14T08:44:44;4.20;;;2.33;;
21624;SDS011;10974;51.034;3.744;2023-03-14T08:47:10;5.67;;;2.07;;
21624;SDS011;10974;51.034;3.744;2023-03-14T08:49:36;4.60;;;2.10;;
21624;SDS011;10974;51.034;3.744;2023-03-14T08:52:03;4.27;;;2.00;;
21624;SDS011;10974;51.034;3.744;2023-03-14T08:54:29;6.80;;;2.50;;
21624;SDS011;10974;51.034;3.744;2023-03-14T08:56:56;7.13;;;2.20;;
21624;SDS011;10974;51.034;3.744;2023-03-14T08:59:22;9.33;;;4.03;;
21624;SDS011;10974;51.034;3.744;2023-03-14T09:01:48;6.43;;;2.47;;
21624;SDS011;10974;51.034;3.744;2023-03-14T09:04:14;8.30;;;2.50;;
21624;SDS011;10974;51.034;3.744;2023-03-14T09:06:41;5.73;;;2.60;;
21624;SDS011;10974;51.034;3.744;2023-03-14T09:09:07;8.27;;;2.80;;
21624;SDS011;10974;51.034;3.744;2023-03-14T09:11:33;8.40;;;2.97;;
21624;SDS011;10974;51.034;3.744;2023-03-14T09:13:59;7.67;;;2.10;;
21624;SDS011;10974;51.034;3.744;2023-03-14T09:16:25;7.30;;;2.50;;
21624;SDS011;10974;51.034;3.744;2023-03-14T09:18:52;5.83;;;2.40;;
21624;SDS011;10974;51.034;3.744;2023-03-14T09:21:25;8.50;;;2.17;;
21624;SDS011;10974;51.034;3.744;2023-03-14T09:23:51;6.03;;;2.37;;
21624;SDS011;10974;51.034;3.744;2023-03-14T09:26:17;7.50;;;2.37;;
21624;SDS011;10974;51.034;3.744;2023-03-14T09:28:43;8.27;;;2.73;;
21624;SDS011;10974;51.034;3.744;2023-03-14T09:31:10;5.30;;;2.30;;
21624;SDS011;10974;51.034;3.744;2023-03-14T09:33:36;6.23;;;2.03;;
21624;SDS011;10974;51.034;3.744;2023-03-14T09:36:02;6.20;;;2.50;;
21624;SDS011;10974;51.034;3.744;2023-03-14T09:38:28;3.13;;;1.60;;
21624;SDS011;10974;51.034;3.744;2023-03-14T09:40:55;5.10;;;2.07;;
21624;SDS011;10974;51.034;3.744;2023-03-14T09:43:23;6.90;;;2.10;;
21624;SDS011;10974;51.034;3.744;2023-03-14T09:45:50;4.13;;;1.87;;
21624;SDS011;10974;51.034;3.744;2023-03-14T09:48:19;5.13;;;1.93;;
21624;SDS011;10974;51.034;3.744;2023-03-14T09:50:49;6.37;;;3.00;;
21624;SDS011;10974;51.034;3.744;2023-03-14T09:53:18;8.93;;;1.93;;
21624;SDS011;10974;51.034;3.744;2023-03-14T09:55:45;7.40;;;2.57;;
21624;SDS011;10974;51.034;3.744;2023-03-14T09:58:12;10.30;;;2.87;;
21624;SDS011;10974;51.034;3.744;2023-03-14T10:00:38;6.37;;;2.10;;
21624;SDS011;10974;51.034;3.744;2023-03-14T10:05:37;7.27;;;2.03;;
21624;SDS011;10974;51.034;3.744;2023-03-14T10:08:03;5.23;;;2.20;;
21624;SDS011;10974;51.034;3.744;2023-03-14T10:10:30;3.00;;;1.57;;
21624;SDS011;10974;51.034;3.744;2023-03-14T10:12:59;2.10;;;1.50;;
21624;SDS011;10974;51.034;3.744;2023-03-14T10:15:31;4.03;;;1.70;;
21624;SDS011;10974;51.034;3.744;2023-03-14T10:17:59;3.10;;;1.40;;
21624;SDS011;10974;51.034;3.744;2023-03-14T10:20:27;6.20;;;1.40;;
21624;SDS011;10974;51.034;3.744;2023-03-14T10:22:57;2.57;;;1.20;;
21624;SDS011;10974;51.034;3.744;2023-03-14T10:25:30;2.90;;;1.37;;
21624;SDS011;10974;51.034;3.744;2023-03-14T10:28:22;1.90;;;1.23;;
21624;SDS011;10974;51.034;3.744;2023-03-14T10:30:48;2.63;;;1.47;;
21624;SDS011;10974;51.034;3.744;2023-03-14T10:35:44;2.53;;;1.30;;
21624;SDS011;10974;51.034;3.744;2023-03-14T10:38:13;4.23;;;1.50;;
21624;SDS011;10974;51.034;3.744;2023-03-14T10:40:41;2.70;;;1.37;;
21624;SDS011;10974;51.034;3.744;2023-03-14T10:43:14;4.10;;;1.40;;
21624;SDS011;10974;51.034;3.744;2023-03-14T10:45:41;6.57;;;1.83;;
21624;SDS011;10974;51.034;3.744;2023-03-14T10:51:26;4.17;;;1.47;;
21624;SDS011;10974;51.034;3.744;2023-03-14T10:53:26;3.00;;;1.70;;
21624;SDS011;10974;51.034;3.744;2023-03-14T10:55:52;3.00;;;1.30;;
21624;SDS011;10974;51.034;3.744;2023-03-14T10:58:19;2.33;;;1.40;;
21624;SDS011;10974;51.034;3.744;2023-03-14T11:00:54;2.67;;;1.47;;
21624;SDS011;10974;51.034;3.744;2023-03-14T11:03:23;2.07;;;1.20;;
21624;SDS011;10974;51.034;3.744;2023-03-14T11:05:59;4.00;;;1.30;;
21624;SDS011;10974;51.034;3.744;2023-03-14T11:11:14;2.87;;;1.43;;
21624;SDS011;10974;51.034;3.744;2023-03-14T11:13:57;2.20;;;1.40;;
21624;SDS011;10974;51.034;3.744;2023-03-14T11:29:12;4.30;;;1.80;;
21624;SDS011;10974;51.034;3.744;2023-03-14T11:31:43;3.83;;;1.90;;
21624;SDS011;10974;51.034;3.744;2023-03-14T11:34:26;5.13;;;1.80;;
21624;SDS011;10974;51.034;3.744;2023-03-14T11:37:00;3.40;;;1.63;;
21624;SDS011;10974;51.034;3.744;2023-03-14T11:39:32;3.50;;;1.77;;
21624;SDS011;10974;51.034;3.744;2023-03-14T11:42:01;4.47;;;2.30;;
21624;SDS011;10974;51.034;3.744;2023-03-14T11:44:32;5.23;;;1.93;;
21624;SDS011;10974;51.034;3.744;2023-03-14T11:47:02;4.30;;;1.93;;
21624;SDS011;10974;51.034;3.744;2023-03-14T11:49:36;4.00;;;1.80;;
21624;SDS011;10974;51.034;3.744;2023-03-14T11:52:19;5.80;;;2.00;;
21624;SDS011;10974;51.034;3.744;2023-03-14T11:54:48;9.10;;;2.30;;
21624;SDS011;10974;51.034;3.744;2023-03-14T11:57:16;8.73;;;2.87;;
21624;SDS011;10974;51.034;3.744;2023-03-14T11:59:55;10.10;;;2.73;;
21624;SDS011;10974;51.034;3.744;2023-03-14T12:02:25;6.80;;;2.70;;
21624;SDS011;10974;51.034;3.744;2023-03-14T12:09:45;14.10;;;3.33;;
21624;SDS011;10974;51.034;3.744;2023-03-14T12:12:12;7.23;;;2.50;;
21624;SDS011;10974;51.034;3.744;2023-03-14T12:14:45;12.40;;;3.13;;
21624;SDS011;10974;51.034;3.744;2023-03-14T12:19:38;9.77;;;3.60;;
21624;SDS011;10974;51.034;3.744;2023-03-14T12:24:35;7.83;;;2.80;;
21624;SDS011;10974;51.034;3.744;2023-03-14T12:27:03;6.60;;;2.87;;
21624;SDS011;10974;51.034;3.744;2023-03-14T12:29:30;9.20;;;3.00;;
21624;SDS011;10974;51.034;3.744;2023-03-14T12:34:43;12.23;;;3.33;;
21624;SDS011;10974;51.034;3.744;2023-03-14T12:39:44;9.63;;;3.07;;
21624;SDS011;10974;51.034;3.744;2023-03-14T12:47:50;10.23;;;2.80;;
21624;SDS011;10974;51.034;3.744;2023-03-14T12:50:19;13.93;;;5.03;;
21624;SDS011;10974;51.034;3.744;2023-03-14T12:58:12;11.20;;;3.07;;
21624;SDS011;10974;51.034;3.744;2023-03-14T13:00:41;9.50;;;3.83;;
21624;SDS011;10974;51.034;3.744;2023-03-14T13:03:20;9.50;;;3.13;;
21624;SDS011;10974;51.034;3.744;2023-03-14T13:06:00;7.83;;;2.33;;
21624;SDS011;10974;51.034;3.744;2023-03-14T13:10:58;5.63;;;2.47;;
21624;SDS011;10974;51.034;3.744;2023-03-14T13:13:25;9.90;;;2.40;;
21624;SDS011;10974;51.034;3.744;2023-03-14T13:15:56;8.73;;;2.33;;
21624;SDS011;10974;51.034;3.744;2023-03-14T13:18:28;7.60;;;2.37;;
21624;SDS011;10974;51.034;3.744;2023-03-14T13:20:59;6.57;;;2.10;;
21624;SDS011;10974;51.034;3.744;2023-03-14T13:23:27;6.60;;;2.50;;
21624;SDS011;10974;51.034;3.744;2023-03-14T13:25:54;11.20;;;2.50;;
21624;SDS011;10974;51.034;3.744;2023-03-14T13:28:20;10.50;;;2.70;;
21624;SDS011;10974;51.034;3.744;2023-03-14T13:30:47;8.00;;;2.30;;
21624;SDS011;10974;51.034;3.744;2023-03-14T13:33:15;14.03;;;3.03;;
21624;SDS011;10974;51.034;3.744;2023-03-14T13:35:48;9.70;;;2.40;;
21624;SDS011;10974;51.034;3.744;2023-03-14T13:38:16;8.70;;;2.27;;
21624;SDS011;10974;51.034;3.744;2023-03-14T13:40:43;9.40;;;3.43;;
21624;SDS011;10974;51.034;3.744;2023-03-14T13:45:52;8.20;;;2.80;;
21624;SDS011;10974;51.034;3.744;2023-03-14T13:48:19;12.73;;;3.30;;
21624;SDS011;10974;51.034;3.744;2023-03-14T13:50:49;13.03;;;3.00;;
21624;SDS011;10974;51.034;3.744;2023-03-14T13:53:16;15.10;;;2.97;;
21624;SDS011;10974;51.034;3.744;2023-03-14T13:55:42;5.27;;;2.17;;
21624;SDS011;10974;51.034;3.744;2023-03-14T13:58:11;5.77;;;1.90;;
21624;SDS011;10974;51.034;3.744;2023-03-14T14:00:39;6.10;;;2.13;;
21624;SDS011;10974;51.034;3.744;2023-03-14T14:03:08;7.73;;;2.00;;
21624;SDS011;10974;51.034;3.744;2023-03-14T14:05:36;7.17;;;1.97;;
21624;SDS011;10974;51.034;3.744;2023-03-14T14:08:05;4.50;;;2.20;;
21624;SDS011;10974;51.034;3.744;2023-03-14T14:10:31;4.43;;;1.67;;
21624;SDS011;10974;51.034;3.744;2023-03-14T14:13:01;8.00;;;1.83;;
21624;SDS011;10974;51.034;3.744;2023-03-14T14:15:29;4.83;;;1.87;;
21624;SDS011;10974;51.034;3.744;2023-03-14T14:18:03;4.50;;;1.70;;
21624;SDS011;10974;51.034;3.744;2023-03-14T14:20:32;5.80;;;2.10;;
21624;SDS011;10974;51.034;3.744;2023-03-14T14:23:12;3.30;;;1.47;;
21624;SDS011;10974;51.034;3.744;2023-03-14T14:25:39;10.57;;;1.60;;
21624;SDS011;10974;51.034;3.744;2023-03-14T14:28:16;2.87;;;1.53;;
21624;SDS011;10974;51.034;3.744;2023-03-14T14:30:43;2.30;;;1.57;;
21624;SDS011;10974;51.034;3.744;2023-03-14T14:33:19;6.07;;;1.40;;
21624;SDS011;10974;51.034;3.744;2023-03-14T14:36:04;1.80;;;1.50;;
21624;SDS011;10974;51.034;3.744;2023-03-14T14:38:30;3.50;;;1.07;;
21624;SDS011;10974;51.034;3.744;2023-03-14T14:40:59;4.50;;;1.80;;
21624;SDS011;10974;51.034;3.744;2023-03-14T14:43:28;1.30;;;1.20;;
21624;SDS011;10974;51.034;3.744;2023-03-14T14:45:55;4.10;;;1.50;;
21624;SDS011;10974;51.034;3.744;2023-03-14T14:48:24;2.77;;;1.20;;
21624;SDS011;10974;51.034;3.744;2023-03-14T14:50:55;2.07;;;1.20;;
21624;SDS011;10974;51.034;3.744;2023-03-14T14:53:38;4.50;;;1.67;;
21624;SDS011;10974;51.034;3.744;2023-03-14T14:56:15;3.20;;;1.50;;
21624;SDS011;10974;51.034;3.744;2023-03-14T14:58:43;4.13;;;1.67;;
21624;SDS011;10974;51.034;3.744;2023-03-14T15:01:17;9.37;;;2.43;;
21624;SDS011;10974;51.034;3.744;2023-03-14T15:03:44;4.27;;;1.83;;
21624;SDS011;10974;51.034;3.744;2023-03-14T15:06:11;2.87;;;1.50;;
21624;SDS011;10974;51.034;3.744;2023-03-14T15:08:38;5.10;;;1.80;;
21624;SDS011;10974;51.034;3.744;2023-03-14T15:11:04;6.27;;;1.53;;
21624;SDS011;10974;51.034;3.744;2023-03-14T15:13:30;5.93;;;1.70;;
21624;SDS011;10974;51.034;3.744;2023-03-14T15:15:56;7.27;;;1.70;;
21624;SDS011;10974;51.034;3.744;2023-03-14T15:18:24;7.27;;;2.17;;
21624;SDS011;10974;51.034;3.744;2023-03-14T15:20:50;8.67;;;1.97;;
21624;SDS011;10974;51.034;3.744;2023-03-14T15:23:17;4.80;;;1.90;;
21624;SDS011;10974;51.034;3.744;2023-03-14T15:25:43;9.90;;;1.90;;
21624;SDS011;10974;51.034;3.744;2023-03-14T15:28:18;5.30;;;2.00;;
21624;SDS011;10974;51.034;3.744;2023-03-14T15:30:46;7.20;;;2.00;;
21624;SDS011;10974;51.034;3.744;2023-03-14T15:33:12;10.50;;;2.40;;
21624;SDS011;10974;51.034;3.744;2023-03-14T15:35:38;9.87;;;3.60;;
21624;SDS011;10974;51.034;3.744;2023-03-14T15:38:08;10.40;;;3.80;;
21624;SDS011;10974;51.034;3.744;2023-03-14T15:40:34;17.93;;;3.80;;
21624;SDS011;10974;51.034;3.744;2023-03-14T15:43:00;5.53;;;2.20;;
21624;SDS011;10974;51.034;3.744;2023-03-14T15:45:27;12.40;;;2.97;;
21624;SDS011;10974;51.034;3.744;2023-03-14T15:47:55;7.53;;;2.50;;
21624;SDS011;10974;51.034;3.744;2023-03-14T15:50:21;9.50;;;2.70;;
21624;SDS011;10974;51.034;3.744;2023-03-14T15:52:47;13.07;;;7.23;;
21624;SDS011;10974;51.034;3.744;2023-03-14T15:55:13;21.60;;;6.73;;
21624;SDS011;10974;51.034;3.744;2023-03-14T15:57:43;10.20;;;4.77;;
21624;SDS011;10974;51.034;3.744;2023-03-14T16:00:12;19.50;;;7.40;;
21624;SDS011;10974;51.034;3.744;2023-03-14T16:02:39;7.80;;;3.07;;
21624;SDS011;10974;51.034;3.744;2023-03-14T16:05:07;8.40;;;3.40;;
21624;SDS011;10974;51.034;3.744;2023-03-14T16:07:33;8.93;;;3.20;;
21624;SDS011;10974;51.034;3.744;2023-03-14T16:09:59;5.20;;;2.33;;
21624;SDS011;10974;51.034;3.744;2023-03-14T16:12:25;8.33;;;2.23;;
21624;SDS011;10974;51.034;3.744;2023-03-14T16:14:51;6.17;;;2.40;;
21624;SDS011;10974;51.034;3.744;2023-03-14T16:17:17;6.30;;;2.10;;
21624;SDS011;10974;51.034;3.744;2023-03-14T16:19:43;5.80;;;1.90;;
21624;SDS011;10974;51.034;3.744;2023-03-14T16:22:09;5.03;;;2.00;;
21624;SDS011;10974;51.034;3.744;2023-03-14T16:24:35;46.40;;;3.30;;
21624;SDS011;10974;51.034;3.744;2023-03-14T16:27:01;5.63;;;1.90;;
21624;SDS011;10974;51.034;3.744;2023-03-14T16:29:28;6.80;;;2.30;;
21624;SDS011;10974;51.034;3.744;2023-03-14T16:31:54;9.73;;;2.93;;
21624;SDS011;10974;51.034;3.744;2023-03-14T16:34:21;7.27;;;2.60;;
21624;SDS011;10974;51.034;3.744;2023-03-14T16:36:47;5.70;;;2.30;;
21624;SDS011;10974;51.034;3.744;2023-03-14T16:39:16;6.50;;;2.30;;
21624;SDS011;10974;51.034;3.744;2023-03-14T16:41:42;6.87;;;2.00;;
21624;SDS011;10974;51.034;3.744;2023-03-14T16:44:08;9.53;;;2.50;;
21624;SDS011;10974;51.034;3.744;2023-03-14T16:46:34;7.57;;;3.50;;
21624;SDS011;10974;51.034;3.744;2023-03-14T16:49:00;6.60;;;2.27;;
21624;SDS011;10974;51.034;3.744;2023-03-14T16:51:27;10.63;;;2.20;;
21624;SDS011;10974;51.034;3.744;2023-03-14T16:53:53;6.13;;;2.13;;
21624;SDS011;10974;51.034;3.744;2023-03-14T16:56:19;7.33;;;2.00;;
21624;SDS011;10974;51.034;3.744;2023-03-14T16:58:46;8.43;;;2.10;;
21624;SDS011;10974;51.034;3.744;2023-03-14T17:01:13;7.13;;;1.87;;
21624;SDS011;10974;51.034;3.744;2023-03-14T17:03:42;4.80;;;1.90;;
21624;SDS011;10974;51.034;3.744;2023-03-14T17:06:14;8.10;;;2.03;;
21624;SDS011;10974;51.034;3.744;2023-03-14T17:08:41;6.93;;;2.73;;
21624;SDS011;10974;51.034;3.744;2023-03-14T17:11:07;6.17;;;2.30;;
21624;SDS011;10974;51.034;3.744;2023-03-14T17:13:34;8.73;;;2.50;;
21624;SDS011;10974;51.034;3.744;2023-03-14T17:16:00;7.57;;;2.23;;
21624;SDS011;10974;51.034;3.744;2023-03-14T17:18:27;9.40;;;2.50;;
21624;SDS011;10974;51.034;3.744;2023-03-14T17:20:53;11.30;;;3.30;;
21624;SDS011;10974;51.034;3.744;2023-03-14T17:23:20;11.77;;;3.10;;
21624;SDS011;10974;51.034;3.744;2023-03-14T17:25:46;8.80;;;3.77;;
21624;SDS011;10974;51.034;3.744;2023-03-14T17:28:14;9.43;;;3.80;;
21624;SDS011;10974;51.034;3.744;2023-03-14T17:30:40;6.80;;;3.20;;
21624;SDS011;10974;51.034;3.744;2023-03-14T17:33:06;6.93;;;3.50;;
21624;SDS011;10974;51.034;3.744;2023-03-14T17:35:33;7.60;;;3.50;;
21624;SDS011;10974;51.034;3.744;2023-03-14T17:37:59;15.80;;;3.90;;
21624;SDS011;10974;51.034;3.744;2023-03-14T17:40:26;6.70;;;2.90;;
21624;SDS011;10974;51.034;3.744;2023-03-14T17:42:52;8.47;;;3.50;;
21624;SDS011;10974;51.034;3.744;2023-03-14T17:45:18;10.30;;;3.00;;
21624;SDS011;10974;51.034;3.744;2023-03-14T17:47:44;11.90;;;3.67;;
21624;SDS011;10974;51.034;3.744;2023-03-14T17:50:11;11.90;;;3.63;;
21624;SDS011;10974;51.034;3.744;2023-03-14T17:52:37;6.70;;;3.10;;
21624;SDS011;10974;51.034;3.744;2023-03-14T17:55:04;7.97;;;2.90;;
21624;SDS011;10974;51.034;3.744;2023-03-14T17:57:30;6.07;;;3.00;;
21624;SDS011;10974;51.034;3.744;2023-03-14T17:59:57;7.03;;;3.10;;
21624;SDS011;10974;51.034;3.744;2023-03-14T18:02:23;7.67;;;3.60;;
21624;SDS011;10974;51.034;3.744;2023-03-14T18:04:49;10.40;;;3.13;;
21624;SDS011;10974;51.034;3.744;2023-03-14T18:07:19;14.97;;;6.30;;
21624;SDS011;10974;51.034;3.744;2023-03-14T18:09:45;12.80;;;3.80;;
21624;SDS011;10974;51.034;3.744;2023-03-14T18:12:11;7.63;;;3.43;;
21624;SDS011;10974;51.034;3.744;2023-03-14T18:14:38;8.20;;;4.10;;
21624;SDS011;10974;51.034;3.744;2023-03-14T18:17:08;10.50;;;3.80;;
21624;SDS011;10974;51.034;3.744;2023-03-14T18:19:37;10.23;;;3.80;;
21624;SDS011;10974;51.034;3.744;2023-03-14T18:22:03;9.83;;;3.30;;
21624;SDS011;10974;51.034;3.744;2023-03-14T18:24:29;11.43;;;3.20;;
21624;SDS011;10974;51.034;3.744;2023-03-14T18:26:55;13.67;;;3.67;;
21624;SDS011;10974;51.034;3.744;2023-03-14T18:29:21;8.83;;;3.13;;
21624;SDS011;10974;51.034;3.744;2023-03-14T18:31:48;8.43;;;3.10;;
21624;SDS011;10974;51.034;3.744;2023-03-14T18:34:15;13.53;;;3.77;;
21624;SDS011;10974;51.034;3.744;2023-03-14T18:36:41;9.10;;;3.30;;
21624;SDS011;10974;51.034;3.744;2023-03-14T18:39:07;13.10;;;3.87;;
21624;SDS011;10974;51.034;3.744;2023-03-14T18:41:34;14.93;;;3.47;;
21624;SDS011;10974;51.034;3.744;2023-03-14T18:44:01;12.50;;;3.10;;
21624;SDS011;10974;51.034;3.744;2023-03-14T18:46:27;9.23;;;3.70;;
21624;SDS011;10974;51.034;3.744;2023-03-14T18:48:53;8.03;;;3.80;;
21624;SDS011;10974;51.034;3.744;2023-03-14T18:51:28;9.77;;;3.97;;
21624;SDS011;10974;51.034;3.744;2023-03-14T18:53:54;11.90;;;4.40;;
21624;SDS011;10974;51.034;3.744;2023-03-14T18:56:22;12.47;;;4.20;;
21624;SDS011;10974;51.034;3.744;2023-03-14T18:58:48;11.20;;;3.60;;
21624;SDS011;10974;51.034;3.744;2023-03-14T19:01:15;17.87;;;4.10;;
21624;SDS011;10974;51.034;3.744;2023-03-14T19:03:44;13.60;;;3.63;;
21624;SDS011;10974;51.034;3.744;2023-03-14T19:06:14;10.40;;;3.83;;
21624;SDS011;10974;51.034;3.744;2023-03-14T19:08:40;13.70;;;3.67;;
21624;SDS011;10974;51.034;3.744;2023-03-14T19:11:07;9.60;;;3.67;;
21624;SDS011;10974;51.034;3.744;2023-03-14T19:13:35;12.13;;;3.40;;
21624;SDS011;10974;51.034;3.744;2023-03-14T19:16:01;15.00;;;4.93;;
21624;SDS011;10974;51.034;3.744;2023-03-14T19:18:27;9.60;;;3.77;;
21624;SDS011;10974;51.034;3.744;2023-03-14T19:20:55;12.83;;;4.53;;
21624;SDS011;10974;51.034;3.744;2023-03-14T19:23:21;14.97;;;4.70;;
21624;SDS011;10974;51.034;3.744;2023-03-14T19:25:49;17.30;;;5.83;;
21624;SDS011;10974;51.034;3.744;2023-03-14T19:28:15;13.67;;;4.30;;
21624;SDS011;10974;51.034;3.744;2023-03-14T19:30:41;14.80;;;4.93;;
21624;SDS011;10974;51.034;3.744;2023-03-14T19:33:10;13.27;;;4.50;;
21624;SDS011;10974;51.034;3.744;2023-03-14T19:35:36;11.80;;;4.40;;
21624;SDS011;10974;51.034;3.744;2023-03-14T19:38:03;14.63;;;4.50;;
21624;SDS011;10974;51.034;3.744;2023-03-14T19:40:29;12.10;;;4.10;;
21624;SDS011;10974;51.034;3.744;2023-03-14T19:42:55;10.10;;;4.00;;
21624;SDS011;10974;51.034;3.744;2023-03-14T19:45:21;9.33;;;5.00;;
21624;SDS011;10974;51.034;3.744;2023-03-14T19:47:48;12.23;;;5.03;;
21624;SDS011;10974;51.034;3.744;2023-03-14T19:50:15;16.37;;;6.13;;
21624;SDS011;10974;51.034;3.744;2023-03-14T19:52:41;9.13;;;3.87;;
21624;SDS011;10974;51.034;3.744;2023-03-14T19:55:08;8.17;;;3.40;;
21624;SDS011;10974;51.034;3.744;2023-03-14T19:57:34;8.80;;;3.20;;
21624;SDS011;10974;51.034;3.744;2023-03-14T20:00:00;4.63;;;2.27;;
21624;SDS011;10974;51.034;3.744;2023-03-14T20:02:28;5.50;;;2.53;;